sensor_id;sensor_type;location;lat;lon;timestamp;P1;durP1;ratioP1;P2;durP2;ratioP2
13584;SDS011;6863;48.402;9.994;2022-11-15T00:01:50;10.10;;;7.20;;
13584;SDS011;6863;48.402;9.994;2022-11-15T00:04:16;8.17;;;7.00;;
13584;SDS011;6863;48.402;9.994;2022-11-15T00:06:42;14.20;;;7.13;;
13584;SDS011;6863;48.402;9.994;2022-11-15T00:09:07;7.80;;;7.10;;
13584;SDS011;6863;48.402;9.994;2022-11-15T00:11:33;8.00;;;6.60;;
13584;SDS011;6863;48.402;9.994;2022-11-15T00:13:58;7.40;;;6.20;;
13584;SDS011;6863;48.402;9.994;2022-11-15T00:16:27;10.47;;;6.30;;
13584;SDS011;6863;48.402;9.994;2022-11-15T00:18:52;8.40;;;6.37;;
13584;SDS011;6863;48.402;9.994;2022-11-15T00:21:18;9.07;;;6.27;;
13584;SDS011;6863;48.402;9.994;2022-11-15T00:23:43;8.50;;;7.13;;
13584;SDS011;6863;48.402;9.994;2022-11-15T00:26:10;12.90;;;6.70;;
13584;SDS011;6863;48.402;9.994;2022-11-15T00:28:38;8.50;;;6.57;;
13584;SDS011;6863;48.402;9.994;2022-11-15T00:31:04;9.17;;;7.17;;
13584;SDS011;6863;48.402;9.994;2022-11-15T00:33:32;8.53;;;6.20;;
13584;SDS011;6863;48.402;9.994;2022-11-15T00:36:05;12.17;;;7.40;;
13584;SDS011;6863;48.402;9.994;2022-11-15T00:38:34;8.80;;;7.43;;
13584;SDS011;6863;48.402;9.994;2022-11-15T00:41:01;8.97;;;6.50;;
13584;SDS011;6863;48.402;9.994;2022-11-15T00:43:28;12.07;;;6.37;;
13584;SDS011;6863;48.402;9.994;2022-11-15T00:45:54;9.30;;;6.93;;
13584;SDS011;6863;48.402;9.994;2022-11-15T00:48:20;12.77;;;7.33;;
13584;SDS011;6863;48.402;9.994;2022-11-15T00:50:45;9.47;;;7.23;;
13584;SDS011;6863;48.402;9.994;2022-11-15T00:53:11;8.50;;;6.90;;
13584;SDS011;6863;48.402;9.994;2022-11-15T00:55:36;7.80;;;7.00;;
13584;SDS011;6863;48.402;9.994;2022-11-15T00:58:02;11.43;;;8.10;;
13584;SDS011;6863;48.402;9.994;2022-11-15T01:00:27;11.60;;;8.07;;
13584;SDS011;6863;48.402;9.994;2022-11-15T01:02:53;11.03;;;8.67;;
13584;SDS011;6863;48.402;9.994;2022-11-15T01:05:19;12.57;;;8.20;;
13584;SDS011;6863;48.402;9.994;2022-11-15T01:07:44;12.70;;;7.97;;
13584;SDS011;6863;48.402;9.994;2022-11-15T01:10:10;11.67;;;8.33;;
13584;SDS011;6863;48.402;9.994;2022-11-15T01:12:36;10.97;;;7.63;;
13584;SDS011;6863;48.402;9.994;2022-11-15T01:15:02;10.83;;;7.87;;
13584;SDS011;6863;48.402;9.994;2022-11-15T01:17:28;11.37;;;8.67;;
13584;SDS011;6863;48.402;9.994;2022-11-15T01:19:54;15.50;;;9.13;;
13584;SDS011;6863;48.402;9.994;2022-11-15T01:22:20;11.20;;;8.60;;
13584;SDS011;6863;48.402;9.994;2022-11-15T01:24:46;10.53;;;8.97;;
13584;SDS011;6863;48.402;9.994;2022-11-15T01:27:11;9.80;;;8.80;;
13584;SDS011;6863;48.402;9.994;2022-11-15T01:29:37;9.40;;;7.67;;
13584;SDS011;6863;48.402;9.994;2022-11-15T01:32:02;9.73;;;7.47;;
13584;SDS011;6863;48.402;9.994;2022-11-15T01:34:28;9.07;;;6.67;;
13584;SDS011;6863;48.402;9.994;2022-11-15T01:36:54;8.70;;;7.33;;
13584;SDS011;6863;48.402;9.994;2022-11-15T01:39:19;9.07;;;7.73;;
13584;SDS011;6863;48.402;9.994;2022-11-15T01:41:45;10.83;;;7.27;;
13584;SDS011;6863;48.402;9.994;2022-11-15T01:44:34;12.27;;;7.03;;
13584;SDS011;6863;48.402;9.994;2022-11-15T01:47:26;10.33;;;7.37;;
13584;SDS011;6863;48.402;9.994;2022-11-15T01:50:00;9.10;;;6.60;;
13584;SDS011;6863;48.402;9.994;2022-11-15T01:52:29;9.20;;;7.17;;
13584;SDS011;6863;48.402;9.994;2022-11-15T01:55:05;10.93;;;7.20;;
13584;SDS011;6863;48.402;9.994;2022-11-15T01:57:34;8.93;;;7.10;;
13584;SDS011;6863;48.402;9.994;2022-11-15T02:00:01;8.07;;;6.60;;
13584;SDS011;6863;48.402;9.994;2022-11-15T02:02:28;9.50;;;7.50;;
13584;SDS011;6863;48.402;9.994;2022-11-15T02:04:54;9.40;;;7.80;;
13584;SDS011;6863;48.402;9.994;2022-11-15T02:07:20;9.37;;;7.00;;
13584;SDS011;6863;48.402;9.994;2022-11-15T02:09:47;12.70;;;7.67;;
13584;SDS011;6863;48.402;9.994;2022-11-15T02:12:14;10.03;;;7.10;;
13584;SDS011;6863;48.402;9.994;2022-11-15T02:14:44;12.33;;;7.83;;
13584;SDS011;6863;48.402;9.994;2022-11-15T02:25:03;11.37;;;7.40;;
13584;SDS011;6863;48.402;9.994;2022-11-15T02:33:42;10.43;;;7.30;;
13584;SDS011;6863;48.402;9.994;2022-11-15T02:38:43;9.77;;;7.80;;
13584;SDS011;6863;48.402;9.994;2022-11-15T02:41:17;9.27;;;8.37;;
13584;SDS011;6863;48.402;9.994;2022-11-15T02:43:50;10.40;;;7.47;;
13584;SDS011;6863;48.402;9.994;2022-11-15T02:49:44;14.03;;;9.03;;
13584;SDS011;6863;48.402;9.994;2022-11-15T02:52:22;9.83;;;8.67;;
13584;SDS011;6863;48.402;9.994;2022-11-15T02:54:56;9.33;;;8.37;;
13584;SDS011;6863;48.402;9.994;2022-11-15T03:00:04;10.40;;;8.80;;
13584;SDS011;6863;48.402;9.994;2022-11-15T03:02:42;9.13;;;8.23;;
13584;SDS011;6863;48.402;9.994;2022-11-15T03:08:04;11.17;;;9.07;;
13584;SDS011;6863;48.402;9.994;2022-11-15T03:10:40;10.93;;;8.37;;
13584;SDS011;6863;48.402;9.994;2022-11-15T03:13:20;10.60;;;9.53;;
13584;SDS011;6863;48.402;9.994;2022-11-15T03:16:05;11.50;;;9.70;;
13584;SDS011;6863;48.402;9.994;2022-11-15T03:18:37;12.60;;;10.50;;
13584;SDS011;6863;48.402;9.994;2022-11-15T03:21:08;12.63;;;10.57;;
13584;SDS011;6863;48.402;9.994;2022-11-15T03:23:36;11.87;;;10.67;;
13584;SDS011;6863;48.402;9.994;2022-11-15T03:26:03;13.07;;;10.40;;
13584;SDS011;6863;48.402;9.994;2022-11-15T03:28:36;12.93;;;10.33;;
13584;SDS011;6863;48.402;9.994;2022-11-15T03:31:16;13.97;;;11.67;;
13584;SDS011;6863;48.402;9.994;2022-11-15T03:34:04;11.50;;;10.13;;
13584;SDS011;6863;48.402;9.994;2022-11-15T03:36:32;12.37;;;10.83;;
13584;SDS011;6863;48.402;9.994;2022-11-15T03:39:00;13.13;;;10.47;;
13584;SDS011;6863;48.402;9.994;2022-11-15T03:41:39;15.73;;;12.70;;
13584;SDS011;6863;48.402;9.994;2022-11-15T03:46:58;12.40;;;10.93;;
13584;SDS011;6863;48.402;9.994;2022-11-15T03:49:35;13.00;;;11.67;;
13584;SDS011;6863;48.402;9.994;2022-11-15T03:52:03;14.77;;;12.13;;
13584;SDS011;6863;48.402;9.994;2022-11-15T03:54:30;14.97;;;12.47;;
13584;SDS011;6863;48.402;9.994;2022-11-15T03:56:56;12.87;;;11.53;;
13584;SDS011;6863;48.402;9.994;2022-11-15T03:59:21;16.93;;;12.37;;
13584;SDS011;6863;48.402;9.994;2022-11-15T04:01:47;14.57;;;11.97;;
13584;SDS011;6863;48.402;9.994;2022-11-15T04:04:13;15.00;;;13.40;;
13584;SDS011;6863;48.402;9.994;2022-11-15T04:06:38;17.20;;;13.37;;
13584;SDS011;6863;48.402;9.994;2022-11-15T04:09:04;15.03;;;13.13;;
13584;SDS011;6863;48.402;9.994;2022-11-15T04:11:29;16.20;;;12.77;;
13584;SDS011;6863;48.402;9.994;2022-11-15T04:13:55;13.80;;;11.93;;
13584;SDS011;6863;48.402;9.994;2022-11-15T04:16:20;17.77;;;12.70;;
13584;SDS011;6863;48.402;9.994;2022-11-15T04:18:46;15.30;;;13.37;;
13584;SDS011;6863;48.402;9.994;2022-11-15T04:21:32;15.67;;;13.37;;
13584;SDS011;6863;48.402;9.994;2022-11-15T04:24:16;16.17;;;14.33;;
13584;SDS011;6863;48.402;9.994;2022-11-15T04:26:41;17.10;;;13.77;;
13584;SDS011;6863;48.402;9.994;2022-11-15T04:29:07;15.03;;;13.17;;
13584;SDS011;6863;48.402;9.994;2022-11-15T04:31:51;15.70;;;13.93;;
13584;SDS011;6863;48.402;9.994;2022-11-15T04:34:17;17.60;;;13.40;;
13584;SDS011;6863;48.402;9.994;2022-11-15T04:36:42;15.57;;;13.50;;
13584;SDS011;6863;48.402;9.994;2022-11-15T04:39:26;15.67;;;14.07;;
13584;SDS011;6863;48.402;9.994;2022-11-15T04:41:52;18.67;;;14.13;;
13584;SDS011;6863;48.402;9.994;2022-11-15T04:44:17;16.90;;;13.87;;
13584;SDS011;6863;48.402;9.994;2022-11-15T04:46:43;19.20;;;15.00;;
13584;SDS011;6863;48.402;9.994;2022-11-15T04:49:08;16.37;;;14.30;;
13584;SDS011;6863;48.402;9.994;2022-11-15T04:51:34;15.63;;;14.03;;
13584;SDS011;6863;48.402;9.994;2022-11-15T04:53:59;18.07;;;14.23;;
13584;SDS011;6863;48.402;9.994;2022-11-15T04:56:25;16.37;;;14.00;;
13584;SDS011;6863;48.402;9.994;2022-11-15T04:58:50;19.83;;;14.13;;
13584;SDS011;6863;48.402;9.994;2022-11-15T05:01:16;17.03;;;13.77;;
13584;SDS011;6863;48.402;9.994;2022-11-15T05:03:42;19.97;;;14.57;;
13584;SDS011;6863;48.402;9.994;2022-11-15T05:06:27;15.23;;;13.17;;
13584;SDS011;6863;48.402;9.994;2022-11-15T05:08:53;18.70;;;14.00;;
13584;SDS011;6863;48.402;9.994;2022-11-15T05:11:18;17.73;;;14.17;;
13584;SDS011;6863;48.402;9.994;2022-11-15T05:13:45;16.53;;;13.43;;
13584;SDS011;6863;48.402;9.994;2022-11-15T05:16:10;16.23;;;13.63;;
13584;SDS011;6863;48.402;9.994;2022-11-15T05:18:36;18.97;;;14.37;;
13584;SDS011;6863;48.402;9.994;2022-11-15T05:21:06;15.90;;;14.07;;
13584;SDS011;6863;48.402;9.994;2022-11-15T05:23:33;16.87;;;12.23;;
13584;SDS011;6863;48.402;9.994;2022-11-15T05:25:59;14.97;;;10.77;;
13584;SDS011;6863;48.402;9.994;2022-11-15T05:28:25;15.57;;;11.40;;
13584;SDS011;6863;48.402;9.994;2022-11-15T05:30:51;14.30;;;10.87;;
13584;SDS011;6863;48.402;9.994;2022-11-15T05:33:17;11.90;;;10.33;;
13584;SDS011;6863;48.402;9.994;2022-11-15T05:35:45;13.20;;;10.03;;
13584;SDS011;6863;48.402;9.994;2022-11-15T05:38:15;11.70;;;10.13;;
13584;SDS011;6863;48.402;9.994;2022-11-15T05:40:41;11.77;;;10.03;;
13584;SDS011;6863;48.402;9.994;2022-11-15T05:43:07;13.43;;;9.73;;
13584;SDS011;6863;48.402;9.994;2022-11-15T05:45:34;12.03;;;9.57;;
13584;SDS011;6863;48.402;9.994;2022-11-15T05:48:03;12.87;;;9.13;;
13584;SDS011;6863;48.402;9.994;2022-11-15T05:50:31;11.57;;;8.87;;
13584;SDS011;6863;48.402;9.994;2022-11-15T05:52:57;12.17;;;9.73;;
13584;SDS011;6863;48.402;9.994;2022-11-15T05:55:23;13.07;;;9.90;;
13584;SDS011;6863;48.402;9.994;2022-11-15T05:57:49;12.33;;;9.93;;
13584;SDS011;6863;48.402;9.994;2022-11-15T06:00:14;11.87;;;10.47;;
13584;SDS011;6863;48.402;9.994;2022-11-15T06:02:40;11.97;;;9.87;;
13584;SDS011;6863;48.402;9.994;2022-11-15T06:05:05;19.27;;;10.37;;
13584;SDS011;6863;48.402;9.994;2022-11-15T06:07:31;13.63;;;10.67;;
13584;SDS011;6863;48.402;9.994;2022-11-15T06:09:57;10.63;;;9.47;;
13584;SDS011;6863;48.402;9.994;2022-11-15T06:12:22;14.00;;;9.87;;
13584;SDS011;6863;48.402;9.994;2022-11-15T06:14:48;11.80;;;9.77;;
13584;SDS011;6863;48.402;9.994;2022-11-15T06:17:13;13.27;;;10.03;;
13584;SDS011;6863;48.402;9.994;2022-11-15T06:19:39;11.83;;;10.47;;
13584;SDS011;6863;48.402;9.994;2022-11-15T06:22:04;15.23;;;10.97;;
13584;SDS011;6863;48.402;9.994;2022-11-15T06:24:30;15.40;;;11.47;;
13584;SDS011;6863;48.402;9.994;2022-11-15T06:26:55;12.87;;;11.30;;
13584;SDS011;6863;48.402;9.994;2022-11-15T06:29:22;14.53;;;12.03;;
13584;SDS011;6863;48.402;9.994;2022-11-15T06:31:48;14.57;;;12.10;;
13584;SDS011;6863;48.402;9.994;2022-11-15T06:34:13;15.10;;;13.20;;
13584;SDS011;6863;48.402;9.994;2022-11-15T06:36:39;18.97;;;13.57;;
13584;SDS011;6863;48.402;9.994;2022-11-15T06:39:04;17.30;;;14.73;;
13584;SDS011;6863;48.402;9.994;2022-11-15T06:41:33;17.33;;;15.53;;
13584;SDS011;6863;48.402;9.994;2022-11-15T06:43:59;22.33;;;18.00;;
13584;SDS011;6863;48.402;9.994;2022-11-15T06:46:25;20.10;;;16.57;;
13584;SDS011;6863;48.402;9.994;2022-11-15T06:48:51;18.43;;;16.43;;
13584;SDS011;6863;48.402;9.994;2022-11-15T06:51:17;18.57;;;15.90;;
13584;SDS011;6863;48.402;9.994;2022-11-15T06:53:42;20.20;;;16.43;;
13584;SDS011;6863;48.402;9.994;2022-11-15T06:56:08;18.90;;;15.33;;
13584;SDS011;6863;48.402;9.994;2022-11-15T06:58:34;17.57;;;15.23;;
13584;SDS011;6863;48.402;9.994;2022-11-15T07:01:04;17.70;;;15.73;;
13584;SDS011;6863;48.402;9.994;2022-11-15T07:03:34;18.60;;;15.87;;
13584;SDS011;6863;48.402;9.994;2022-11-15T07:06:01;16.53;;;14.80;;
13584;SDS011;6863;48.402;9.994;2022-11-15T07:08:26;21.37;;;14.20;;
13584;SDS011;6863;48.402;9.994;2022-11-15T07:10:54;13.93;;;12.43;;
13584;SDS011;6863;48.402;9.994;2022-11-15T07:16:02;13.03;;;11.77;;
13584;SDS011;6863;48.402;9.994;2022-11-15T07:18:29;15.47;;;13.07;;
13584;SDS011;6863;48.402;9.994;2022-11-15T07:20:54;15.03;;;13.13;;
13584;SDS011;6863;48.402;9.994;2022-11-15T07:23:20;13.83;;;12.43;;
13584;SDS011;6863;48.402;9.994;2022-11-15T07:25:46;13.27;;;11.77;;
13584;SDS011;6863;48.402;9.994;2022-11-15T07:28:11;12.17;;;10.83;;
13584;SDS011;6863;48.402;9.994;2022-11-15T07:30:37;11.90;;;10.63;;
13584;SDS011;6863;48.402;9.994;2022-11-15T07:33:03;13.10;;;10.03;;
13584;SDS011;6863;48.402;9.994;2022-11-15T07:35:28;12.70;;;9.53;;
13584;SDS011;6863;48.402;9.994;2022-11-15T07:37:58;10.23;;;8.33;;
13584;SDS011;6863;48.402;9.994;2022-11-15T07:40:26;10.07;;;8.37;;
13584;SDS011;6863;48.402;9.994;2022-11-15T07:43:03;13.73;;;8.40;;
13584;SDS011;6863;48.402;9.994;2022-11-15T07:45:31;11.13;;;7.60;;
13584;SDS011;6863;48.402;9.994;2022-11-15T07:47:58;9.30;;;7.57;;
13584;SDS011;6863;48.402;9.994;2022-11-15T07:50:24;10.93;;;7.67;;
13584;SDS011;6863;48.402;9.994;2022-11-15T07:52:54;8.43;;;7.13;;
13584;SDS011;6863;48.402;9.994;2022-11-15T07:55:24;9.07;;;7.23;;
13584;SDS011;6863;48.402;9.994;2022-11-15T07:57:52;9.60;;;7.70;;
13584;SDS011;6863;48.402;9.994;2022-11-15T08:00:18;11.73;;;8.20;;
13584;SDS011;6863;48.402;9.994;2022-11-15T08:02:44;8.40;;;7.50;;
13584;SDS011;6863;48.402;9.994;2022-11-15T08:05:10;11.33;;;7.60;;
13584;SDS011;6863;48.402;9.994;2022-11-15T08:07:36;12.10;;;7.67;;
13584;SDS011;6863;48.402;9.994;2022-11-15T08:10:03;9.00;;;8.10;;
13584;SDS011;6863;48.402;9.994;2022-11-15T08:12:30;10.63;;;8.77;;
13584;SDS011;6863;48.402;9.994;2022-11-15T08:14:56;9.53;;;8.63;;
13584;SDS011;6863;48.402;9.994;2022-11-15T08:17:23;9.20;;;8.30;;
13584;SDS011;6863;48.402;9.994;2022-11-15T08:19:49;10.10;;;8.57;;
13584;SDS011;6863;48.402;9.994;2022-11-15T08:22:15;11.25;;;9.07;;
13584;SDS011;6863;48.402;9.994;2022-11-15T08:24:40;9.95;;;8.88;;
13584;SDS011;6863;48.402;9.994;2022-11-15T08:27:06;10.20;;;8.73;;
13584;SDS011;6863;48.402;9.994;2022-11-15T08:29:40;13.07;;;10.32;;
13584;SDS011;6863;48.402;9.994;2022-11-15T08:32:09;11.88;;;10.45;;
13584;SDS011;6863;48.402;9.994;2022-11-15T08:34:35;11.18;;;9.90;;
13584;SDS011;6863;48.402;9.994;2022-11-15T08:37:02;11.68;;;10.50;;
13584;SDS011;6863;48.402;9.994;2022-11-15T08:39:27;11.13;;;10.10;;
13584;SDS011;6863;48.402;9.994;2022-11-15T08:41:53;11.35;;;10.15;;
13584;SDS011;6863;48.402;9.994;2022-11-15T08:44:19;14.45;;;9.80;;
13584;SDS011;6863;48.402;9.994;2022-11-15T08:46:47;14.57;;;10.63;;
13584;SDS011;6863;48.402;9.994;2022-11-15T08:49:13;10.77;;;9.88;;
13584;SDS011;6863;48.402;9.994;2022-11-15T08:51:38;10.00;;;9.02;;
13584;SDS011;6863;48.402;9.994;2022-11-15T08:54:04;11.02;;;9.93;;
13584;SDS011;6863;48.402;9.994;2022-11-15T08:56:29;12.30;;;10.55;;
13584;SDS011;6863;48.402;9.994;2022-11-15T08:58:55;12.38;;;11.18;;
13584;SDS011;6863;48.402;9.994;2022-11-15T09:01:21;14.52;;;11.50;;
13584;SDS011;6863;48.402;9.994;2022-11-15T09:03:47;13.15;;;11.75;;
13584;SDS011;6863;48.402;9.994;2022-11-15T09:06:13;12.70;;;11.43;;
13584;SDS011;6863;48.402;9.994;2022-11-15T09:08:38;15.60;;;13.82;;
13584;SDS011;6863;48.402;9.994;2022-11-15T09:11:05;14.02;;;12.63;;
13584;SDS011;6863;48.402;9.994;2022-11-15T09:13:31;14.70;;;13.25;;
13584;SDS011;6863;48.402;9.994;2022-11-15T09:15:58;18.55;;;13.07;;
13584;SDS011;6863;48.402;9.994;2022-11-15T09:18:24;20.50;;;14.30;;
13584;SDS011;6863;48.402;9.994;2022-11-15T09:20:50;13.93;;;12.63;;
13584;SDS011;6863;48.402;9.994;2022-11-15T09:23:15;23.63;;;14.70;;
13584;SDS011;6863;48.402;9.994;2022-11-15T09:25:41;27.10;;;16.15;;
13584;SDS011;6863;48.402;9.994;2022-11-15T09:28:07;15.18;;;12.50;;
13584;SDS011;6863;48.402;9.994;2022-11-15T09:30:33;14.45;;;13.02;;
13584;SDS011;6863;48.402;9.994;2022-11-15T09:33:05;13.60;;;12.32;;
13584;SDS011;6863;48.402;9.994;2022-11-15T09:35:31;14.48;;;13.02;;
13584;SDS011;6863;48.402;9.994;2022-11-15T09:37:57;16.52;;;14.95;;
13584;SDS011;6863;48.402;9.994;2022-11-15T09:40:23;18.00;;;16.13;;
13584;SDS011;6863;48.402;9.994;2022-11-15T09:50:49;21.83;;;19.52;;
13584;SDS011;6863;48.402;9.994;2022-11-15T09:56:38;28.45;;;23.38;;
13584;SDS011;6863;48.402;9.994;2022-11-15T10:04:22;22.05;;;19.95;;
13584;SDS011;6863;48.402;9.994;2022-11-15T10:06:51;21.90;;;19.90;;
13584;SDS011;6863;48.402;9.994;2022-11-15T10:12:17;24.17;;;21.45;;
13584;SDS011;6863;48.402;9.994;2022-11-15T10:14:44;24.67;;;21.67;;
13584;SDS011;6863;48.402;9.994;2022-11-15T10:17:25;19.42;;;17.35;;
13584;SDS011;6863;48.402;9.994;2022-11-15T10:20:07;22.75;;;19.95;;
13584;SDS011;6863;48.402;9.994;2022-11-15T10:22:50;25.08;;;21.00;;
13584;SDS011;6863;48.402;9.994;2022-11-15T10:27:55;21.63;;;19.63;;
13584;SDS011;6863;48.402;9.994;2022-11-15T10:31:14;22.30;;;20.25;;
13584;SDS011;6863;48.402;9.994;2022-11-15T10:36:18;22.17;;;20.08;;
13584;SDS011;6863;48.402;9.994;2022-11-15T10:41:14;18.65;;;16.88;;
13584;SDS011;6863;48.402;9.994;2022-11-15T10:43:45;19.10;;;17.42;;
13584;SDS011;6863;48.402;9.994;2022-11-15T10:46:26;17.13;;;15.63;;
13584;SDS011;6863;48.402;9.994;2022-11-15T10:48:52;16.42;;;14.95;;
13584;SDS011;6863;48.402;9.994;2022-11-15T10:51:25;16.77;;;15.23;;
13584;SDS011;6863;48.402;9.994;2022-11-15T10:53:54;16.73;;;15.32;;
13584;SDS011;6863;48.402;9.994;2022-11-15T10:56:24;16.13;;;14.70;;
13584;SDS011;6863;48.402;9.994;2022-11-15T10:58:58;16.80;;;15.10;;
13584;SDS011;6863;48.402;9.994;2022-11-15T11:01:26;18.33;;;16.52;;
13584;SDS011;6863;48.402;9.994;2022-11-15T11:04:00;19.38;;;17.05;;
13584;SDS011;6863;48.402;9.994;2022-11-15T11:06:27;20.65;;;17.13;;
13584;SDS011;6863;48.402;9.994;2022-11-15T11:09:04;22.13;;;16.73;;
13584;SDS011;6863;48.402;9.994;2022-11-15T11:11:44;21.23;;;15.18;;
13584;SDS011;6863;48.402;9.994;2022-11-15T11:20:08;26.88;;;17.90;;
13584;SDS011;6863;48.402;9.994;2022-11-15T11:25:32;45.40;;;20.25;;
13584;SDS011;6863;48.402;9.994;2022-11-15T11:28:23;43.03;;;19.25;;
13584;SDS011;6863;48.402;9.994;2022-11-15T11:31:17;37.65;;;17.63;;
13584;SDS011;6863;48.402;9.994;2022-11-15T11:42:31;16.65;;;11.70;;
13584;SDS011;6863;48.402;9.994;2022-11-15T11:47:39;12.65;;;11.23;;
13584;SDS011;6863;48.402;9.994;2022-11-15T11:53:24;12.30;;;10.93;;
13584;SDS011;6863;48.402;9.994;2022-11-15T11:55:41;10.45;;;9.43;;
13584;SDS011;6863;48.402;9.994;2022-11-15T12:00:55;12.07;;;10.25;;
13584;SDS011;6863;48.402;9.994;2022-11-15T12:03:38;10.15;;;9.15;;
13584;SDS011;6863;48.402;9.994;2022-11-15T12:06:31;10.43;;;9.52;;
13584;SDS011;6863;48.402;9.994;2022-11-15T12:14:56;10.80;;;9.73;;
13584;SDS011;6863;48.402;9.994;2022-11-15T12:17:28;10.10;;;9.30;;
13584;SDS011;6863;48.402;9.994;2022-11-15T12:20:02;10.45;;;9.57;;
13584;SDS011;6863;48.402;9.994;2022-11-15T12:22:40;10.48;;;9.43;;
13584;SDS011;6863;48.402;9.994;2022-11-15T12:27:39;10.95;;;10.00;;
13584;SDS011;6863;48.402;9.994;2022-11-15T12:30:38;10.32;;;8.45;;
13584;SDS011;6863;48.402;9.994;2022-11-15T12:33:30;10.15;;;9.23;;
13584;SDS011;6863;48.402;9.994;2022-11-15T12:36:30;9.30;;;8.48;;
13584;SDS011;6863;48.402;9.994;2022-11-15T12:39:11;10.85;;;9.85;;
13584;SDS011;6863;48.402;9.994;2022-11-15T12:41:39;13.65;;;12.25;;
13584;SDS011;6863;48.402;9.994;2022-11-15T12:44:10;11.60;;;10.05;;
13584;SDS011;6863;48.402;9.994;2022-11-15T12:57:35;9.20;;;8.20;;
13584;SDS011;6863;48.402;9.994;2022-11-15T12:59:47;9.85;;;8.57;;
13584;SDS011;6863;48.402;9.994;2022-11-15T13:02:20;11.23;;;9.15;;
13584;SDS011;6863;48.402;9.994;2022-11-15T13:05:27;9.27;;;8.40;;
13584;SDS011;6863;48.402;9.994;2022-11-15T13:17:39;9.57;;;7.88;;
13584;SDS011;6863;48.402;9.994;2022-11-15T13:22:43;11.55;;;8.32;;
13584;SDS011;6863;48.402;9.994;2022-11-15T13:25:16;15.48;;;9.68;;
13584;SDS011;6863;48.402;9.994;2022-11-15T13:27:44;20.00;;;11.13;;
13584;SDS011;6863;48.402;9.994;2022-11-15T13:30:15;16.83;;;11.00;;
13584;SDS011;6863;48.402;9.994;2022-11-15T13:32:45;16.07;;;11.53;;
13584;SDS011;6863;48.402;9.994;2022-11-15T13:35:18;11.27;;;9.73;;
13584;SDS011;6863;48.402;9.994;2022-11-15T13:37:48;12.60;;;8.83;;
13584;SDS011;6863;48.402;9.994;2022-11-15T13:40:23;12.67;;;10.13;;
13584;SDS011;6863;48.402;9.994;2022-11-15T13:42:49;11.50;;;10.27;;
13584;SDS011;6863;48.402;9.994;2022-11-15T13:45:15;12.70;;;10.83;;
13584;SDS011;6863;48.402;9.994;2022-11-15T13:47:43;13.40;;;11.97;;
13584;SDS011;6863;48.402;9.994;2022-11-15T13:50:12;14.23;;;12.23;;
13584;SDS011;6863;48.402;9.994;2022-11-15T13:52:39;14.30;;;10.90;;
13584;SDS011;6863;48.402;9.994;2022-11-15T13:57:45;11.67;;;10.43;;
13584;SDS011;6863;48.402;9.994;2022-11-15T14:02:51;12.63;;;10.93;;
13584;SDS011;6863;48.402;9.994;2022-11-15T14:05:18;11.53;;;10.33;;
13584;SDS011;6863;48.402;9.994;2022-11-15T14:08:02;11.60;;;10.40;;
13584;SDS011;6863;48.402;9.994;2022-11-15T14:10:37;11.10;;;9.90;;
13584;SDS011;6863;48.402;9.994;2022-11-15T14:13:04;12.27;;;10.50;;
13584;SDS011;6863;48.402;9.994;2022-11-15T14:15:54;12.23;;;10.87;;
13584;SDS011;6863;48.402;9.994;2022-11-15T14:18:39;11.57;;;10.43;;
13584;SDS011;6863;48.402;9.994;2022-11-15T14:21:10;10.20;;;9.20;;
13584;SDS011;6863;48.402;9.994;2022-11-15T14:23:36;11.17;;;10.10;;
13584;SDS011;6863;48.402;9.994;2022-11-15T14:26:01;11.10;;;9.90;;
13584;SDS011;6863;48.402;9.994;2022-11-15T14:28:32;10.87;;;9.77;;
13584;SDS011;6863;48.402;9.994;2022-11-15T14:31:02;12.73;;;10.43;;
13584;SDS011;6863;48.402;9.994;2022-11-15T14:33:37;12.43;;;10.83;;
13584;SDS011;6863;48.402;9.994;2022-11-15T14:38:36;12.17;;;10.63;;
13584;SDS011;6863;48.402;9.994;2022-11-15T14:41:02;10.60;;;9.50;;
13584;SDS011;6863;48.402;9.994;2022-11-15T14:43:27;11.93;;;10.23;;
13584;SDS011;6863;48.402;9.994;2022-11-15T14:45:53;12.77;;;9.77;;
13584;SDS011;6863;48.402;9.994;2022-11-15T14:48:18;11.33;;;10.17;;
13584;SDS011;6863;48.402;9.994;2022-11-15T14:50:44;10.80;;;9.67;;
13584;SDS011;6863;48.402;9.994;2022-11-15T14:53:11;12.83;;;10.00;;
13584;SDS011;6863;48.402;9.994;2022-11-15T14:55:39;10.80;;;9.53;;
13584;SDS011;6863;48.402;9.994;2022-11-15T14:58:05;13.43;;;10.47;;
13584;SDS011;6863;48.402;9.994;2022-11-15T15:00:35;9.87;;;8.87;;
13584;SDS011;6863;48.402;9.994;2022-11-15T15:03:02;10.37;;;9.37;;
13584;SDS011;6863;48.402;9.994;2022-11-15T15:05:31;11.80;;;9.73;;
13584;SDS011;6863;48.402;9.994;2022-11-15T15:08:04;12.63;;;10.40;;
13584;SDS011;6863;48.402;9.994;2022-11-15T15:10:34;13.37;;;11.27;;
13584;SDS011;6863;48.402;9.994;2022-11-15T15:13:05;13.57;;;10.30;;
13584;SDS011;6863;48.402;9.994;2022-11-15T15:15:34;12.30;;;10.40;;
13584;SDS011;6863;48.402;9.994;2022-11-15T15:18:01;10.87;;;9.77;;
13584;SDS011;6863;48.402;9.994;2022-11-15T15:20:29;12.07;;;9.53;;
13584;SDS011;6863;48.402;9.994;2022-11-15T15:22:55;11.00;;;9.27;;
13584;SDS011;6863;48.402;9.994;2022-11-15T15:27:48;11.40;;;10.10;;
13584;SDS011;6863;48.402;9.994;2022-11-15T15:30:14;10.93;;;9.37;;
13584;SDS011;6863;48.402;9.994;2022-11-15T15:32:40;11.40;;;9.40;;
13584;SDS011;6863;48.402;9.994;2022-11-15T15:35:07;12.60;;;10.10;;
13584;SDS011;6863;48.402;9.994;2022-11-15T15:37:36;10.37;;;9.27;;
13584;SDS011;6863;48.402;9.994;2022-11-15T15:40:01;9.40;;;8.50;;
13584;SDS011;6863;48.402;9.994;2022-11-15T15:42:27;9.77;;;8.83;;
13584;SDS011;6863;48.402;9.994;2022-11-15T15:44:52;10.77;;;9.47;;
13584;SDS011;6863;48.402;9.994;2022-11-15T15:47:19;14.30;;;11.10;;
13584;SDS011;6863;48.402;9.994;2022-11-15T15:49:46;12.37;;;11.00;;
13584;SDS011;6863;48.402;9.994;2022-11-15T15:52:12;12.10;;;9.67;;
13584;SDS011;6863;48.402;9.994;2022-11-15T15:54:38;13.07;;;9.43;;
13584;SDS011;6863;48.402;9.994;2022-11-15T15:57:05;10.30;;;9.27;;
13584;SDS011;6863;48.402;9.994;2022-11-15T15:59:31;12.33;;;9.83;;
13584;SDS011;6863;48.402;9.994;2022-11-15T16:01:57;11.37;;;9.33;;
13584;SDS011;6863;48.402;9.994;2022-11-15T16:04:23;15.80;;;10.20;;
13584;SDS011;6863;48.402;9.994;2022-11-15T16:06:48;11.23;;;9.13;;
13584;SDS011;6863;48.402;9.994;2022-11-15T16:09:17;11.47;;;9.87;;
13584;SDS011;6863;48.402;9.994;2022-11-15T16:12:04;12.07;;;9.87;;
13584;SDS011;6863;48.402;9.994;2022-11-15T16:14:30;12.77;;;10.60;;
13584;SDS011;6863;48.402;9.994;2022-11-15T16:16:56;11.07;;;9.97;;
13584;SDS011;6863;48.402;9.994;2022-11-15T16:19:21;13.33;;;9.90;;
13584;SDS011;6863;48.402;9.994;2022-11-15T16:21:47;10.50;;;9.43;;
13584;SDS011;6863;48.402;9.994;2022-11-15T16:24:13;11.70;;;10.00;;
13584;SDS011;6863;48.402;9.994;2022-11-15T16:26:38;13.10;;;10.60;;
13584;SDS011;6863;48.402;9.994;2022-11-15T16:29:04;12.50;;;9.57;;
13584;SDS011;6863;48.402;9.994;2022-11-15T16:31:31;10.60;;;9.50;;
13584;SDS011;6863;48.402;9.994;2022-11-15T16:33:57;10.33;;;9.33;;
13584;SDS011;6863;48.402;9.994;2022-11-15T16:36:24;14.03;;;12.50;;
13584;SDS011;6863;48.402;9.994;2022-11-15T16:38:50;12.30;;;10.43;;
13584;SDS011;6863;48.402;9.994;2022-11-15T16:41:16;11.63;;;9.70;;
13584;SDS011;6863;48.402;9.994;2022-11-15T16:43:46;12.67;;;10.77;;
13584;SDS011;6863;48.402;9.994;2022-11-15T16:46:24;13.70;;;10.20;;
13584;SDS011;6863;48.402;9.994;2022-11-15T16:48:51;12.33;;;11.10;;
13584;SDS011;6863;48.402;9.994;2022-11-15T16:51:20;13.30;;;11.27;;
13584;SDS011;6863;48.402;9.994;2022-11-15T16:53:46;14.80;;;11.87;;
13584;SDS011;6863;48.402;9.994;2022-11-15T16:58:47;13.10;;;11.33;;
13584;SDS011;6863;48.402;9.994;2022-11-15T17:01:17;14.70;;;12.37;;
13584;SDS011;6863;48.402;9.994;2022-11-15T17:03:46;15.37;;;12.27;;